Time;durP1;ratioP1;P1;durP2;ratioP2;P2;SDS_P1;SDS_P2;PMS_P1;PMS_P2;Temp;Humidity;BMP_temperature;BMP_pressure;BME280_temperature;BME280_humidity;BME280_pressure;Samples;Min_cycle;Max_cycle;Signal;HPM_P1;HPM_P2
2023/03/14 00:00:26;;;;;;;5.27;1.90;;;10.20;99.90;;;10.57;100.00;96250.75;5019362;28;20544;-77
2023/03/14 00:02:56;;;;;;;5.80;1.47;;;10.10;99.90;;;10.55;100.00;96235.28;5021702;28;20470;-78
2023/03/14 00:05:27;;;;;;;5.80;1.80;;;10.10;99.90;;;10.53;100.00;96237.34;5026845;28;20509;-78
2023/03/14 00:07:58;;;;;;;2.47;1.73;;;10.10;99.90;;;10.51;100.00;96228.94;5028274;28;21025;-77
2023/03/14 00:10:27;;;;;;;4.67;2.00;;;10.10;99.90;;;10.48;100.00;96239.06;5027020;28;21089;-77
2023/03/14 00:12:57;;;;;;;7.27;1.93;;;10.10;99.90;;;10.50;100.00;96235.19;5030740;28;20490;-77
2023/03/14 00:15:27;;;;;;;3.30;1.70;;;10.00;99.90;;;10.49;100.00;96227.56;5027524;28;20586;-78
2023/03/14 00:17:56;;;;;;;4.73;2.17;;;10.00;99.90;;;10.50;100.00;96210.88;5031937;28;20465;-77
2023/03/14 00:20:25;;;;;;;6.87;2.20;;;10.00;99.90;;;10.50;100.00;96223.94;5027955;28;20827;-77
2023/03/14 00:22:55;;;;;;;3.40;1.70;;;10.00;99.90;;;10.48;100.00;96220.78;5024719;28;20466;-78
2023/03/14 00:25:26;;;;;;;7.23;1.90;;;10.00;99.90;;;10.48;100.00;96216.31;5020624;28;20554;-78
2023/03/14 00:27:56;;;;;;;5.40;1.77;;;10.00;99.90;;;10.46;100.00;96210.53;5019360;28;20468;-77
2023/03/14 00:30:25;;;;;;;12.03;2.33;;;10.00;99.90;;;10.44;100.00;96207.38;5019672;28;20593;-78
2023/03/14 00:32:55;;;;;;;6.10;1.60;;;9.90;99.90;;;10.42;100.00;96216.44;5020695;28;20476;-78
2023/03/14 00:35:24;;;;;;;3.30;1.97;;;9.90;99.90;;;10.45;100.00;96229.06;5019211;28;20519;-77
2023/03/14 00:37:53;;;;;;;7.03;2.20;;;10.00;99.90;;;10.40;100.00;96227.16;5021916;28;20470;-78
2023/03/14 00:40:23;;;;;;;4.37;1.80;;;9.90;99.90;;;10.39;100.00;96219.53;5019900;28;20459;-77
2023/03/14 00:42:54;;;;;;;5.80;1.67;;;9.90;99.90;;;10.40;100.00;96224.53;5019977;28;20462;-78
2023/03/14 00:45:24;;;;;;;8.13;1.60;;;10.00;99.90;;;10.42;100.00;96213.84;5020097;28;20845;-77
2023/03/14 00:47:55;;;;;;;2.40;1.47;;;9.90;99.90;;;10.42;100.00;96212.03;5019437;28;21240;-78
2023/03/14 00:50:24;;;;;;;9.80;2.63;;;10.00;99.90;;;10.43;100.00;96208.41;5019888;28;21035;-77
2023/03/14 00:52:55;;;;;;;6.20;2.37;;;10.00;99.90;;;10.41;100.00;96207.81;5019953;28;20500;-78
2023/03/14 00:55:25;;;;;;;6.10;1.73;;;9.90;99.90;;;10.42;100.00;96206.78;5020166;28;20494;-77
2023/03/14 00:57:57;;;;;;;4.40;1.63;;;9.90;99.90;;;10.43;100.00;96216.22;5019410;28;20462;-78
2023/03/14 01:00:26;;;;;;;6.43;2.00;;;9.90;99.90;;;10.44;100.00;96220.44;5026595;28;20556;-77
2023/03/14 01:02:55;;;;;;;3.87;1.90;;;9.90;99.90;;;10.43;100.00;96213.63;5025743;28;20466;-78
2023/03/14 01:05:26;;;;;;;10.50;1.80;;;10.00;99.90;;;10.40;100.00;96215.91;5024349;28;20977;-78
2023/03/14 01:07:55;;;;;;;8.50;2.20;;;9.90;99.90;;;10.37;100.00;96218.97;5027489;28;21469;-78
2023/03/14 01:10:25;;;;;;;3.83;1.90;;;9.90;99.90;;;10.36;100.00;96212.16;5025859;28;20490;-78
2023/03/14 01:12:57;;;;;;;4.97;1.90;;;9.90;99.90;;;10.32;100.00;96211.81;5025997;28;20464;-77
2023/03/14 01:15:27;;;;;;;6.80;1.90;;;9.90;99.90;;;10.31;100.00;96217.28;5020062;28;20513;-77
2023/03/14 01:17:57;;;;;;;21.33;2.10;;;9.80;99.90;;;10.30;100.00;96215.69;5024942;28;20516;-77
2023/03/14 01:20:26;;;;;;;5.50;1.77;;;9.80;99.90;;;10.31;100.00;96227.75;5023728;28;20870;-77
2023/03/14 01:22:54;;;;;;;4.30;1.67;;;9.80;99.90;;;10.30;100.00;96226.16;5020469;28;20471;-79
2023/03/14 01:25:24;;;;;;;5.60;1.73;;;9.80;99.90;;;10.32;100.00;96222.28;5018873;28;20472;-78
2023/03/14 01:27:56;;;;;;;1.93;1.37;;;9.90;99.90;;;10.29;100.00;96225.34;5020655;28;20458;-77
2023/03/14 01:30:25;;;;;;;3.20;1.60;;;9.80;99.90;;;10.29;100.00;96221.94;5019996;28;20462;-78
2023/03/14 01:32:56;;;;;;;5.47;1.93;;;9.80;99.90;;;10.27;100.00;96224.00;5018815;28;20506;-77
2023/03/14 01:35:25;;;;;;;4.33;1.73;;;9.80;99.90;;;10.28;100.00;96234.19;5015696;28;20486;-77
2023/03/14 01:37:55;;;;;;;4.03;1.70;;;9.80;99.90;;;10.28;100.00;96231.59;5019387;28;20467;-77
2023/03/14 01:40:24;;;;;;;4.33;1.97;;;9.80;99.90;;;10.23;100.00;96213.22;5016230;28;20459;-78
2023/03/14 01:43:07;;;;;;;5.90;2.20;;;9.80;99.90;;;10.25;100.00;96205.94;5020081;28;20815;-78
2023/03/14 01:46:21;;;;;;;7.90;2.73;;;9.80;99.90;;;10.21;100.00;96196.97;5018070;28;20476;-77
2023/03/14 01:49:02;;;;;;;7.60;1.77;;;9.80;99.90;;;10.19;100.00;96206.06;5018256;28;20499;-77
2023/03/14 01:51:40;;;;;;;9.83;1.80;;;9.70;99.90;;;10.18;100.00;96202.66;5018361;28;20466;-77
2023/03/14 01:54:17;;;;;;;7.37;1.87;;;9.80;99.90;;;10.20;100.00;96205.03;5017997;28;20459;-77
2023/03/14 01:56:53;;;;;;;3.53;1.73;;;9.70;99.90;;;10.20;100.00;96187.56;5019318;28;20462;-78
2023/03/14 01:59:25;;;;;;;4.90;1.90;;;9.70;99.90;;;10.19;100.00;96193.78;5025771;28;21015;-77
2023/03/14 02:01:57;;;;;;;2.97;1.70;;;9.70;99.90;;;10.20;100.00;96184.94;5026138;28;20967;-77
2023/03/14 02:04:32;;;;;;;8.20;2.00;;;9.70;99.90;;;10.21;100.00;96177.88;5024945;28;20473;-77
2023/03/14 02:07:09;;;;;;;6.73;2.20;;;9.80;99.90;;;10.21;100.00;96164.81;5027157;28;20469;-77
2023/03/14 02:09:42;;;;;;;3.47;1.60;;;9.70;99.90;;;10.18;100.00;96158.25;5025535;28;20972;-78
2023/03/14 02:12:14;;;;;;;11.63;1.87;;;9.70;99.90;;;10.20;100.00;96163.25;5025590;28;20499;-77
2023/03/14 02:14:47;;;;;;;3.03;1.30;;;9.70;99.90;;;10.20;100.00;96145.75;5022708;28;20509;-77
2023/03/14 02:17:19;;;;;;;4.90;1.87;;;9.70;99.90;;;10.12;100.00;96148.69;5018708;28;20458;-77
2023/03/14 02:20:12;;;;;;;2.83;1.60;;;9.70;99.90;;;10.07;100.00;96144.16;5018937;28;20492;-78
2023/03/14 02:22:45;;;;;;;7.73;1.50;;;9.60;99.90;;;10.06;100.00;96141.78;5016235;28;20470;-77
2023/03/14 02:25:25;;;;;;;4.93;1.77;;;9.70;99.90;;;10.07;100.00;96135.53;5018575;28;20470;-77
2023/03/14 02:27:55;;;;;;;7.50;2.20;;;9.60;99.90;;;10.09;100.00;96149.16;5017252;28;20500;-78
2023/03/14 02:30:28;;;;;;;4.00;1.57;;;9.60;99.90;;;10.08;100.00;96144.94;5017879;28;20557;-78
2023/03/14 02:33:02;;;;;;;9.33;2.00;;;9.60;99.90;;;10.10;100.00;96133.25;5018590;28;20477;-78
2023/03/14 02:35:38;;;;;;;2.77;1.60;;;9.60;99.90;;;10.06;100.00;96142.59;5017791;28;20493;-77
2023/03/14 02:38:20;;;;;;;5.70;2.90;;;9.60;99.90;;;10.00;100.00;96148.72;5017737;28;20496;-78
2023/03/14 02:40:51;;;;;;;4.17;1.47;;;9.60;99.90;;;10.01;100.00;96136.44;5017408;28;21040;-78
2023/03/14 02:43:21;;;;;;;8.27;1.60;;;9.50;99.90;;;10.04;100.00;96136.78;5018279;28;20536;-77
2023/03/14 02:45:53;;;;;;;2.70;1.60;;;9.50;99.90;;;10.05;100.00;96124.53;5018605;28;20832;-78
2023/03/14 02:48:26;;;;;;;5.07;1.77;;;9.60;99.90;;;10.08;100.00;96131.91;5017366;28;21406;-78
2023/03/14 02:51:00;;;;;;;5.33;1.50;;;9.60;99.90;;;10.04;100.00;96128.16;5020530;28;20504;-78
2023/03/14 02:53:32;;;;;;;4.07;1.77;;;9.60;99.90;;;10.04;100.00;96123.72;5023694;28;20541;-77
2023/03/14 02:56:01;;;;;;;4.47;1.80;;;9.60;99.90;;;10.04;100.00;96120.31;5021483;28;20888;-77
2023/03/14 02:58:33;;;;;;;2.20;1.50;;;9.50;99.90;;;10.06;100.00;96116.47;5025116;28;20470;-77
2023/03/14 03:01:03;;;;;;;11.63;1.70;;;9.50;99.90;;;10.06;100.00;96116.47;5019943;28;20521;-77
2023/03/14 03:03:33;;;;;;;12.67;1.93;;;9.60;99.90;;;10.05;100.00;96112.28;5020171;28;20467;-78
2023/03/14 03:06:02;;;;;;;7.57;1.97;;;9.60;99.90;;;10.04;100.00;96109.88;5020337;28;20972;-77
2023/03/14 03:08:33;;;;;;;4.53;1.57;;;9.60;99.90;;;10.06;100.00;96115.69;5020628;28;20465;-77
2023/03/14 03:11:02;;;;;;;4.10;1.33;;;9.60;99.90;;;10.04;100.00;96115.91;5022881;28;20469;-77
2023/03/14 03:13:34;;;;;;;5.47;1.63;;;9.60;99.90;;;10.02;100.00;96106.72;5018205;28;20545;-77
2023/03/14 03:16:03;;;;;;;2.07;1.40;;;9.60;99.90;;;10.03;100.00;96095.25;5017842;28;21074;-77
2023/03/14 03:18:32;;;;;;;7.87;2.00;;;9.60;99.90;;;10.00;100.00;96101.72;5016565;28;21011;-78
2023/03/14 03:21:03;;;;;;;10.07;2.10;;;9.50;99.90;;;9.98;100.00;96092.53;5018641;28;20466;-77
2023/03/14 03:23:33;;;;;;;6.80;1.73;;;9.60;99.90;;;9.95;100.00;96085.97;5017481;28;20473;-77
2023/03/14 03:26:04;;;;;;;2.20;1.43;;;9.50;99.90;;;9.96;100.00;96090.13;5018466;28;20466;-77
2023/03/14 03:28:35;;;;;;;6.07;1.67;;;9.50;99.90;;;9.95;100.00;96093.00;5019411;28;20474;-77
2023/03/14 03:31:09;;;;;;;9.33;1.47;;;9.50;99.90;;;9.92;100.00;96094.25;5016081;28;20462;-77
2023/03/14 03:33:38;;;;;;;4.80;1.40;;;9.50;99.90;;;9.93;100.00;96087.19;5016836;28;21079;-77
2023/03/14 03:36:11;;;;;;;4.30;1.70;;;9.50;99.90;;;9.93;100.00;96088.00;5019281;28;20592;-77
2023/03/14 03:38:40;;;;;;;4.47;1.40;;;9.50;99.90;;;9.93;100.00;96076.75;5017275;28;21034;-77
2023/03/14 03:41:09;;;;;;;3.50;1.20;;;9.50;99.90;;;9.89;100.00;96073.03;5020113;28;20462;-77
2023/03/14 03:43:40;;;;;;;4.00;1.67;;;9.40;99.90;;;9.90;100.00;96074.59;5020968;28;20510;-78
2023/03/14 03:46:10;;;;;;;4.60;1.60;;;9.40;99.90;;;9.90;100.00;96064.16;5021484;28;20961;-78
2023/03/14 03:48:40;;;;;;;1.77;1.00;;;9.50;99.90;;;9.90;100.00;96058.94;5020642;28;20469;-77
2023/03/14 03:51:15;;;;;;;4.47;1.77;;;9.40;99.90;;;9.87;100.00;96064.63;5032347;28;20938;-77
2023/03/14 03:53:46;;;;;;;4.30;1.27;;;9.40;99.90;;;9.84;100.00;96055.44;5031060;28;20473;-78
2023/03/14 03:56:16;;;;;;;1.80;1.13;;;9.40;99.90;;;9.86;100.00;96055.19;5028811;28;21090;-77
2023/03/14 03:58:46;;;;;;;5.10;1.87;;;9.40;99.90;;;9.84;100.00;96050.22;5028217;28;21161;-78
2023/03/14 04:01:16;;;;;;;31.20;13.17;;;9.40;99.90;;;9.86;100.00;96057.81;5017281;28;21292;-77
2023/03/14 04:03:46;;;;;;;6.73;1.90;;;9.40;99.90;;;9.84;100.00;96054.66;5018429;28;20972;-77
2023/03/14 04:06:16;;;;;;;3.00;1.27;;;9.40;99.90;;;9.84;100.00;96054.66;5018042;28;20466;-77
2023/03/14 04:08:44;;;;;;;5.90;1.40;;;9.40;99.90;;;9.82;100.00;96048.88;5017263;28;20459;-78
2023/03/14 04:11:14;;;;;;;45.97;22.00;;;9.40;99.90;;;9.73;100.00;96047.63;5021026;28;20549;-74
2023/03/14 04:13:47;;;;;;;5.40;1.70;;;9.30;99.90;;;9.73;100.00;96038.00;5019738;28;20466;-77
2023/03/14 04:16:20;;;;;;;7.43;1.50;;;9.30;99.90;;;9.70;100.00;96041.06;5017953;28;20521;-77
2023/03/14 04:18:51;;;;;;;2.80;1.30;;;9.30;99.90;;;9.65;100.00;96034.97;5019257;28;20972;-76
2023/03/14 04:21:23;;;;;;;5.17;1.67;;;9.20;99.90;;;9.71;100.00;96044.47;5020844;28;20471;-77
2023/03/14 04:23:53;;;;;;;3.93;2.13;;;9.20;99.90;;;9.72;100.00;96039.00;5019285;28;20882;-77
2023/03/14 04:26:24;;;;;;;6.97;1.57;;;9.30;99.90;;;9.71;100.00;96037.44;5018634;28;20466;-77
2023/03/14 04:28:55;;;;;;;2.63;1.40;;;9.30;99.90;;;9.69;100.00;96028.25;5018360;28;20472;-77
2023/03/14 04:31:24;;;;;;;6.40;1.53;;;9.20;99.90;;;9.68;100.00;96032.69;5017215;28;20506;-77
2023/03/14 04:33:55;;;;;;;21.30;11.27;;;9.20;99.90;;;9.69;100.00;96021.22;5017969;28;20462;-74
2023/03/14 04:36:25;;;;;;;3.93;1.40;;;9.20;99.90;;;9.64;100.00;96042.00;5019531;28;20489;-77
2023/03/14 04:38:56;;;;;;;3.43;1.30;;;9.20;99.90;;;9.60;100.00;96039.06;5017259;28;21040;-77
2023/03/14 04:41:27;;;;;;;6.03;1.47;;;9.10;99.90;;;9.59;100.00;96029.63;5017563;28;20471;-77
2023/03/14 04:43:59;;;;;;;1.87;1.20;;;9.10;99.90;;;9.58;100.00;96041.09;5018903;28;20694;-77
2023/03/14 04:46:29;;;;;;;7.53;3.87;;;9.10;99.90;;;9.57;100.00;96018.66;5017894;28;20472;-79
2023/03/14 04:49:00;;;;;;;8.70;1.50;;;9.10;99.90;;;9.59;100.00;96027.03;5017009;28;21059;-77
2023/03/14 04:51:29;;;;;;;3.07;1.30;;;9.20;99.90;;;9.63;100.00;96019.53;5018411;28;20511;-77
2023/03/14 04:54:00;;;;;;;4.23;1.33;;;9.20;99.90;;;9.63;100.00;96022.16;5019408;28;20987;-77
2023/03/14 04:56:29;;;;;;;9.70;1.10;;;9.20;99.90;;;9.65;100.00;96021.94;5019856;28;21309;-77
2023/03/14 04:59:00;;;;;;;1.67;1.33;;;9.20;99.90;;;9.58;100.00;96017.59;5020933;28;20467;-77
2023/03/14 05:01:30;;;;;;;1.80;1.10;;;9.10;99.90;;;9.58;100.00;96008.97;5019559;28;20463;-77
2023/03/14 05:04:01;;;;;;;6.33;1.20;;;9.20;99.90;;;9.58;100.00;96008.97;5019329;28;20463;-77
2023/03/14 05:06:32;;;;;;;4.10;1.57;;;9.20;99.90;;;9.60;100.00;95996.50;5019589;28;20485;-77
2023/03/14 05:09:01;;;;;;;2.00;1.10;;;9.20;99.90;;;9.58;100.00;96004.56;5020100;28;20515;-77
2023/03/14 05:11:32;;;;;;;3.57;1.30;;;9.10;99.90;;;9.55;100.00;95989.38;5023386;28;20461;-77
2023/03/14 05:14:02;;;;;;;1.30;1.20;;;9.10;99.90;;;9.58;100.00;95988.09;5022199;28;20490;-75
2023/03/14 05:16:31;;;;;;;5.30;1.53;;;9.10;99.90;;;9.57;100.00;95981.31;5018153;28;20478;-77
2023/03/14 05:19:02;;;;;;;1.70;1.00;;;9.10;99.90;;;9.58;100.00;95973.25;5015617;28;20545;-77
2023/03/14 05:21:32;;;;;;;45.33;18.43;;;9.10;99.90;;;9.55;100.00;95973.72;5015484;28;20481;-78
2023/03/14 05:24:03;;;;;;;3.53;1.53;;;9.10;99.90;;;9.53;100.00;95954.91;5016904;28;20473;-79
2023/03/14 05:26:33;;;;;;;3.70;1.47;;;9.10;99.90;;;9.53;100.00;95949.69;5017920;28;20557;-77
2023/03/14 05:29:04;;;;;;;2.50;1.20;;;9.10;99.90;;;9.53;100.00;95947.06;5017405;28;20578;-78
2023/03/14 05:31:35;;;;;;;8.43;3.90;;;9.10;99.90;;;9.54;100.00;95945.28;5016010;28;20528;-75
2023/03/14 05:34:05;;;;;;;1.73;1.20;;;9.10;99.90;;;9.51;100.00;95933.47;5015621;28;20473;-77
2023/03/14 05:36:35;;;;;;;8.10;1.20;;;9.10;99.90;;;9.50;100.00;95933.72;5016997;28;20486;-77
2023/03/14 05:39:04;;;;;;;1.63;1.10;;;9.10;99.90;;;9.45;100.00;95937.00;5020586;28;20550;-77
2023/03/14 05:41:35;;;;;;;1.50;1.10;;;9.00;99.90;;;9.48;100.00;95935.75;5020286;28;20462;-77
2023/03/14 05:44:07;;;;;;;1.93;1.17;;;9.00;99.90;;;9.49;100.00;95937.31;5021944;28;20466;-77
2023/03/14 05:46:37;;;;;;;1.10;1.00;;;9.00;99.90;;;9.51;100.00;95943.13;5019285;28;20463;-78
2023/03/14 05:49:07;;;;;;;1.50;1.03;;;9.00;99.90;;;9.51;100.00;95938.66;5023371;28;20963;-77
2023/03/14 05:51:38;;;;;;;1.00;0.90;;;9.10;99.90;;;9.44;100.00;95940.63;5028352;28;21015;-77
2023/03/14 05:54:07;;;;;;;2.87;1.53;;;8.90;99.90;;;9.45;100.00;95929.19;5029038;28;20546;-77
2023/03/14 05:56:37;;;;;;;1.73;1.30;;;9.00;99.90;;;9.48;100.00;95926.09;5027023;28;20583;-77
2023/03/14 05:59:09;;;;;;;1.13;1.03;;;9.00;99.90;;;9.53;100.00;95923.59;5027633;28;20470;-78
2023/03/14 06:01:39;;;;;;;2.90;1.30;;;9.10;99.90;;;9.50;100.00;95924.06;5028446;28;20465;-77
2023/03/14 06:04:10;;;;;;;1.83;1.17;;;9.10;99.90;;;9.49;100.00;95916.47;5028776;28;20466;-78
2023/03/14 06:06:39;;;;;;;4.40;1.13;;;9.10;99.90;;;9.49;100.00;95926.91;5028648;28;20457;-77
2023/03/14 06:09:09;;;;;;;2.07;1.10;;;9.10;99.90;;;9.50;100.00;95918.84;5026841;28;20470;-78
2023/03/14 06:11:37;;;;;;;4.57;1.37;;;9.10;99.90;;;9.54;100.00;95924.41;5024915;28;20489;-77
2023/03/14 06:14:08;;;;;;;4.83;1.50;;;9.10;99.90;;;9.50;100.00;95918.84;5026387;28;20488;-78
2023/03/14 06:16:37;;;;;;;3.40;1.50;;;9.10;99.90;;;9.52;100.00;95935.06;5027397;28;20467;-77
2023/03/14 06:19:06;;;;;;;1.90;1.30;;;9.10;99.90;;;9.50;100.00;95937.13;5027542;28;20880;-77
2023/03/14 06:21:37;;;;;;;1.60;1.30;;;9.10;99.90;;;9.46;100.00;95937.78;5025057;28;20483;-77
2023/03/14 06:24:07;;;;;;;1.50;1.30;;;9.00;99.90;;;9.49;100.00;95932.91;5019555;28;20473;-77
2023/03/14 06:26:37;;;;;;;7.33;1.40;;;9.10;99.90;;;9.49;100.00;95937.31;5018099;28;20504;-78
2023/03/14 06:29:08;;;;;;;2.93;1.60;;;9.10;99.90;;;9.49;100.00;95932.13;5019712;28;20565;-78
2023/03/14 06:31:37;;;;;;;3.77;1.33;;;9.10;99.90;;;9.43;100.00;95944.28;5018972;28;20539;-78
2023/03/14 06:34:06;;;;;;;3.80;1.47;;;9.00;99.90;;;9.45;100.00;95936.19;5020215;28;20545;-78
2023/03/14 06:36:36;;;;;;;2.80;1.87;;;9.00;99.90;;;9.48;100.00;95933.13;5020773;28;20469;-77
2023/03/14 06:39:06;;;;;;;2.10;1.30;;;9.10;99.90;;;9.47;100.00;95932.38;5020442;28;20540;-77
2023/03/14 06:41:37;;;;;;;5.67;1.30;;;9.00;99.90;;;9.51;100.00;95925.63;5020303;28;20469;-77
2023/03/14 06:44:07;;;;;;;1.40;1.10;;;9.10;99.90;;;9.48;100.00;95936.53;5019486;28;20463;-77
2023/03/14 06:46:37;;;;;;;4.00;1.30;;;9.00;99.90;;;9.48;100.00;95936.53;5018969;28;20494;-78
2023/03/14 06:49:06;;;;;;;3.83;1.60;;;9.00;99.90;;;9.51;100.00;95938.66;5021598;28;20516;-77
2023/03/14 06:51:35;;;;;;;3.60;1.40;;;9.10;99.90;;;9.52;100.00;95939.47;5020255;28;20612;-78
2023/03/14 06:54:04;;;;;;;1.80;1.10;;;9.10;99.90;;;9.46;100.00;95930.75;5021089;28;20470;-77
2023/03/14 06:56:34;;;;;;;1.97;1.23;;;9.10;99.90;;;9.48;100.00;95928.72;5020490;28;20545;-77
2023/03/14 06:59:03;;;;;;;1.33;1.20;;;9.00;99.90;;;9.47;100.00;95924.53;5023757;28;20494;-78
2023/03/14 07:01:34;;;;;;;7.20;1.93;;;9.10;99.90;;;9.49;100.00;95930.31;5024265;28;20489;-77
2023/03/14 07:04:04;;;;;;;1.93;1.50;;;9.00;99.90;;;9.52;100.00;95926.44;5019309;28;20467;-77
2023/03/14 07:06:35;;;;;;;1.77;1.37;;;9.00;99.90;;;9.51;100.00;95925.63;5018743;28;20469;-78
2023/03/14 07:09:05;;;;;;;6.67;2.17;;;9.00;99.90;;;9.48;100.00;95914.88;5017298;28;20466;-77
2023/03/14 07:11:35;;;;;;;3.57;1.53;;;9.00;99.90;;;9.50;100.00;95926.69;5019373;28;20467;-78
2023/03/14 07:14:05;;;;;;;3.80;1.30;;;9.00;99.90;;;9.53;100.00;95928.81;5019455;28;20492;-78
2023/03/14 07:16:36;;;;;;;5.20;1.43;;;9.10;99.90;;;9.47;100.00;95927.16;5022221;28;20466;-77
2023/03/14 07:19:05;;;;;;;2.10;1.40;;;9.00;99.90;;;9.47;100.00;95940.19;5021891;28;21081;-77
2023/03/14 07:21:35;;;;;;;2.97;1.20;;;9.00;99.90;;;9.50;100.00;95928.50;5023888;28;20515;-77
2023/03/14 07:24:06;;;;;;;1.67;1.50;;;9.10;99.90;;;9.53;100.00;95931.44;5021248;28;20463;-78
2023/03/14 07:26:35;;;;;;;2.63;1.47;;;9.10;99.90;;;9.55;100.00;95937.19;5022676;28;20466;-77
2023/03/14 07:29:05;;;;;;;4.13;1.70;;;9.10;99.90;;;9.56;100.00;95941.41;5022998;28;20468;-77
2023/03/14 07:31:36;;;;;;;2.03;1.43;;;9.10;99.90;;;9.61;100.00;95941.47;5023213;28;20462;-78
2023/03/14 07:34:05;;;;;;;1.90;1.40;;;9.10;99.90;;;9.60;100.00;95952.16;5021950;28;20508;-78
2023/03/14 07:36:35;;;;;;;1.63;1.30;;;9.10;99.90;;;9.61;100.00;95938.09;5022917;28;20466;-78
2023/03/14 07:39:05;;;;;;;1.33;1.23;;;9.20;99.90;;;9.63;100.00;95945.69;5025399;28;20489;-78
2023/03/14 07:41:34;;;;;;;2.90;1.87;;;9.20;99.90;;;9.64;100.00;95942.06;5032420;28;20569;-77
2023/03/14 07:44:03;;;;;;;1.47;1.20;;;9.20;99.90;;;9.58;100.00;95941.94;5032217;28;21068;-78
2023/03/14 07:46:33;;;;;;;3.13;1.47;;;9.10;99.90;;;9.58;100.00;95954.19;5034549;28;20540;-78
2023/03/14 07:49:03;;;;;;;2.80;1.27;;;9.10;99.90;;;9.60;100.00;95945.13;5034356;28;20470;-77
2023/03/14 07:51:34;;;;;;;3.37;1.33;;;9.20;99.90;;;9.59;100.00;95945.34;5033490;28;20476;-78
2023/03/14 07:54:04;;;;;;;3.47;1.17;;;9.20;99.90;;;9.60;100.00;95944.31;5031584;28;20557;-77
2023/03/14 07:56:35;;;;;;;1.17;1.07;;;9.20;99.90;;;9.61;100.00;95946.69;5030757;28;20827;-78
2023/03/14 07:59:05;;;;;;;3.73;1.20;;;9.20;99.90;;;9.59;100.00;95945.34;5033798;28;20504;-78
2023/03/14 08:01:36;;;;;;;1.00;0.90;;;9.20;99.90;;;9.59;100.00;95951.34;5025496;28;20560;-77
2023/03/14 08:04:07;;;;;;;2.23;1.20;;;9.20;99.90;;;9.65;100.00;95959.28;5024052;28;20458;-78
2023/03/14 08:06:38;;;;;;;1.33;1.20;;;9.20;99.90;;;9.68;100.00;95962.25;5021269;28;21130;-78
2023/03/14 08:09:08;;;;;;;1.23;1.13;;;9.30;99.90;;;9.67;100.00;95960.66;5021575;28;20473;-77
2023/03/14 08:11:38;;;;;;;3.00;1.30;;;9.30;99.90;;;9.70;100.00;95965.41;5022334;28;20533;-77
2023/03/14 08:14:10;;;;;;;1.10;1.00;;;9.30;99.90;;;9.74;100.00;95965.72;5021900;28;20478;-78
2023/03/14 08:16:39;;;;;;;1.10;1.00;;;9.30;99.90;;;9.70;100.00;95965.41;5023355;28;20465;-78
2023/03/14 08:19:10;;;;;;;6.00;0.90;;;9.30;99.90;;;9.71;100.00;95976.63;5020618;28;20502;-78
2023/03/14 08:21:40;;;;;;;1.17;0.80;;;9.30;99.90;;;9.74;100.00;95961.28;5022605;28;21061;-77
2023/03/14 08:24:10;;;;;;;1.87;0.83;;;9.30;99.90;;;9.78;100.00;95966.84;5021383;28;20474;-78
2023/03/14 08:26:40;;;;;;;1.00;0.90;;;9.30;99.90;;;9.84;100.00;95960.69;5020561;28;20572;-77
2023/03/14 08:29:12;;;;;;;2.23;1.20;;;9.40;99.90;;;9.88;100.00;95972.25;5020924;28;20462;-77
2023/03/14 08:31:42;;;;;;;2.10;1.10;;;9.40;99.90;;;9.91;100.00;95971.78;5020362;28;20999;-77
2023/03/14 08:34:13;;;;;;;1.57;0.70;;;9.50;99.90;;;9.94;100.00;95971.31;5022743;28;20537;-78
2023/03/14 08:36:44;;;;;;;0.90;0.80;;;9.50;99.90;;;9.96;100.00;95969.28;5021407;28;20470;-77
2023/03/14 08:39:13;;;;;;;0.93;0.90;;;9.50;99.90;;;9.99;100.00;95974.03;5024987;28;20494;-77
2023/03/14 08:41:44;;;;;;;1.87;1.10;;;9.60;99.90;;;10.00;100.00;95965.16;5026177;28;20470;-77
2023/03/14 08:44:14;;;;;;;1.47;0.70;;;9.60;99.90;;;10.01;100.00;95971.97;5025515;28;20463;-77
2023/03/14 08:46:48;;;;;;;1.83;0.87;;;9.60;99.90;;;10.03;100.00;95975.16;5024256;28;20560;-77
2023/03/14 08:49:20;;;;;;;1.00;0.80;;;9.60;99.90;;;10.01;100.00;95966.75;5026778;28;20843;-77
2023/03/14 08:51:50;;;;;;;1.63;0.80;;;9.50;99.90;;;10.06;100.00;95966.84;5027014;28;20471;-77
2023/03/14 08:54:19;;;;;;;1.00;0.90;;;9.60;99.90;;;10.07;100.00;95968.41;5026642;28;20469;-77
2023/03/14 08:56:49;;;;;;;1.10;0.90;;;9.60;99.90;;;10.10;100.00;95957.47;5026993;28;20517;-77
2023/03/14 08:59:19;;;;;;;2.53;0.87;;;9.70;99.90;;;10.07;100.00;95965.78;5025276;28;20501;-77
2023/03/14 09:01:49;;;;;;;1.43;0.80;;;9.60;99.90;;;10.14;100.00;95979.53;5023525;28;20490;-78
2023/03/14 09:04:21;;;;;;;1.90;1.00;;;9.70;99.90;;;10.19;100.00;95979.63;5020779;28;20461;-77
2023/03/14 09:06:52;;;;;;;1.00;0.90;;;9.70;99.90;;;10.22;100.00;95979.16;5021712;28;21220;-78
2023/03/14 09:09:22;;;;;;;1.03;0.70;;;9.80;99.90;;;10.22;100.00;95979.16;5020472;28;20473;-78
2023/03/14 09:11:52;;;;;;;1.00;0.77;;;9.80;99.90;;;10.24;100.00;95978.94;5023240;28;20478;-78
2023/03/14 09:14:22;;;;;;;0.80;0.80;;;9.90;99.90;;;10.31;100.00;95985.56;5019695;28;21035;-77
2023/03/14 09:16:52;;;;;;;1.00;0.80;;;9.90;99.90;;;10.34;100.00;95986.94;5021824;28;20466;-78
2023/03/14 09:19:23;;;;;;;0.80;0.80;;;9.90;99.90;;;10.38;100.00;95980.97;5021219;28;20514;-77
2023/03/14 09:21:53;;;;;;;1.17;0.80;;;9.90;99.90;;;10.38;100.00;95980.97;5021208;28;20821;-77
2023/03/14 09:24:23;;;;;;;0.80;0.70;;;9.90;99.90;;;10.41;100.00;95983.13;5020558;28;20548;-78
2023/03/14 09:26:53;;;;;;;3.00;0.90;;;9.90;99.90;;;10.46;100.00;95985.81;5019829;28;21012;-77
2023/03/14 09:29:22;;;;;;;0.70;0.70;;;10.00;99.90;;;10.48;100.00;95977.75;5020007;28;20462;-78
2023/03/14 09:31:52;;;;;;;1.50;0.80;;;10.00;99.90;;;10.53;100.00;95981.22;5021578;28;20513;-77
2023/03/14 09:34:25;;;;;;;0.93;0.83;;;10.10;99.90;;;10.49;100.00;95995.00;5018107;28;20459;-78
2023/03/14 09:36:54;;;;;;;1.30;0.80;;;10.00;99.90;;;10.52;100.00;95991.91;5020892;28;21130;-77
2023/03/14 09:39:24;;;;;;;1.10;1.00;;;10.10;99.90;;;10.57;100.00;96003.25;5029529;28;20481;-80
2023/03/14 09:41:58;;;;;;;1.30;0.80;;;10.20;99.90;;;10.60;100.00;96002.78;5031957;28;20465;-78
2023/03/14 09:44:31;;;;;;;0.80;0.70;;;10.20;99.90;;;10.65;100.00;96003.91;5029478;28;20477;-77
2023/03/14 09:47:07;;;;;;;0.80;0.80;;;10.30;99.90;;;10.64;100.00;96007.53;5017961;28;20466;-78
2023/03/14 09:49:41;;;;;;;1.37;0.80;;;10.30;99.90;;;10.65;100.00;96006.50;5028032;28;20470;-77
2023/03/14 09:52:18;;;;;;;1.83;1.00;;;10.20;99.90;;;10.68;100.00;96006.81;5029848;28;20561;-78
2023/03/14 09:54:53;;;;;;;0.80;0.77;;;10.20;99.90;;;10.67;100.00;96012.28;5029291;28;20470;-78
2023/03/14 09:57:26;;;;;;;0.93;0.80;;;10.20;99.90;;;10.71;100.00;96016.00;5029855;28;20466;-78
2023/03/14 10:00:13;;;;;;;1.17;0.80;;;10.20;99.90;;;10.74;100.00;96011.09;5028052;28;20485;-77
2023/03/14 10:02:48;;;;;;;0.77;0.77;;;10.30;99.90;;;10.78;100.00;96011.41;5021055;28;20968;-77
2023/03/14 10:05:22;;;;;;;2.30;0.90;;;10.30;99.90;;;10.76;100.00;96016.09;5018270;28;20462;-78
2023/03/14 10:07:52;;;;;;;1.00;0.90;;;10.30;99.90;;;10.77;100.00;96017.66;5018826;28;20908;-77
2023/03/14 10:10:27;;;;;;;1.20;0.73;;;10.30;99.90;;;10.80;100.00;96014.56;5019149;28;20513;-77
2023/03/14 10:13:09;;;;;;;3.13;0.80;;;10.30;99.90;;;10.82;100.00;96017.75;5018998;28;20543;-78
2023/03/14 10:15:40;;;;;;;0.97;0.80;;;10.40;99.90;;;10.85;100.00;96020.69;5017294;28;20478;-77
2023/03/14 10:18:13;;;;;;;0.90;0.73;;;10.50;99.90;;;10.82;100.00;96026.41;5019916;28;20498;-78
2023/03/14 10:20:47;;;;;;;1.00;0.80;;;10.50;99.90;;;10.78;100.00;96024.47;5019773;28;20491;-77
2023/03/14 10:23:31;;;;;;;2.70;0.90;;;10.30;99.90;;;10.82;100.00;96025.59;5018945;28;20871;-77
2023/03/14 10:26:15;;;;;;;1.17;0.70;;;10.30;99.90;;;10.80;100.00;96038.09;5019274;28;21056;-78
2023/03/14 10:28:48;;;;;;;1.50;0.80;;;10.30;99.90;;;10.80;100.00;96040.72;5018843;28;20466;-77
2023/03/14 10:31:17;;;;;;;1.27;0.80;;;10.30;99.90;;;10.85;100.00;96053.88;5019591;28;20527;-78
2023/03/14 10:34:01;;;;;;;0.70;0.70;;;10.40;99.90;;;10.84;100.00;96065.34;5020007;28;20553;-77
2023/03/14 10:36:34;;;;;;;0.90;0.70;;;10.40;99.90;;;10.80;100.00;96069.47;5021488;28;20548;-78